Time;durP1;ratioP1;P1;durP2;ratioP2;P2;SDS_P1;SDS_P2;PMS_P1;PMS_P2;Temp;Humidity;BMP_temperature;BMP_pressure;BME280_temperature;BME280_humidity;BME280_pressure;Samples;Min_cycle;Max_cycle;Signal;HPM_P1;HPM_P2
2020/12/25 00:00:23;;;;;;;0.80;0.80;;;3.80;99.90;;;;;;5070302;28;20680;-62
2020/12/25 00:02:49;;;;;;;0.93;0.70;;;3.80;99.90;;;;;;5070603;28;20212;-62
2020/12/25 00:05:14;;;;;;;0.63;0.63;;;3.80;99.90;;;;;;5070675;28;20180;-62
2020/12/25 00:07:40;;;;;;;0.70;0.70;;;3.80;99.90;;;;;;5070742;28;20185;-61
2020/12/25 00:10:05;;;;;;;0.60;0.60;;;3.80;99.90;;;;;;5070872;28;20678;-61
2020/12/25 00:12:31;;;;;;;0.77;0.77;;;3.80;99.90;;;;;;5069841;28;20653;-60
2020/12/25 00:14:56;;;;;;;1.43;0.60;;;3.90;99.90;;;;;;5070799;28;20188;-61
2020/12/25 00:17:22;;;;;;;0.70;0.70;;;3.90;99.90;;;;;;5070131;28;20213;-61
2020/12/25 00:19:47;;;;;;;1.80;1.13;;;3.90;99.90;;;;;;5070746;28;20181;-59
2020/12/25 00:22:13;;;;;;;2.43;0.70;;;4.00;99.90;;;;;;5069936;28;20219;-61
2020/12/25 00:24:40;;;;;;;1.00;0.70;;;4.00;99.90;;;;;;5070773;28;20231;-61
2020/12/25 00:27:06;;;;;;;1.00;0.67;;;4.00;99.90;;;;;;5070742;28;20197;-60
2020/12/25 00:29:31;;;;;;;2.17;0.90;;;4.10;99.90;;;;;;5063424;28;20196;-61
2020/12/25 00:31:56;;;;;;;0.97;0.77;;;4.10;99.90;;;;;;5069979;28;20718;-61
2020/12/25 00:34:22;;;;;;;1.67;0.70;;;4.10;99.90;;;;;;5070200;28;20197;-61
2020/12/25 00:36:47;;;;;;;0.60;0.60;;;4.10;99.90;;;;;;5070249;28;20295;-60
2020/12/25 00:39:14;;;;;;;1.37;0.57;;;4.20;99.90;;;;;;5070571;28;20184;-61
2020/12/25 00:41:48;;;;;;;0.80;0.80;;;4.20;99.90;;;;;;5069507;28;20184;-60
2020/12/25 00:44:14;;;;;;;0.70;0.70;;;4.20;99.90;;;;;;5070376;28;20261;-60
2020/12/25 00:46:40;;;;;;;0.60;0.60;;;4.10;99.90;;;;;;5070769;28;20255;-60
2020/12/25 00:49:06;;;;;;;2.50;0.70;;;4.20;99.90;;;;;;5070159;28;20318;-59
2020/12/25 00:51:32;;;;;;;0.97;0.80;;;4.20;99.90;;;;;;5069213;28;20184;-61
2020/12/25 00:53:57;;;;;;;2.70;0.80;;;4.10;99.90;;;;;;5069690;28;20181;-60
2020/12/25 00:56:23;;;;;;;1.43;0.80;;;4.10;99.90;;;;;;5069960;28;20279;-60
2020/12/25 00:58:48;;;;;;;1.33;1.20;;;4.00;99.90;;;;;;5070350;28;20176;-61
2020/12/25 01:01:14;;;;;;;1.33;0.70;;;4.10;99.90;;;;;;5069162;28;20213;-60
2020/12/25 01:03:42;;;;;;;2.40;0.80;;;4.10;99.90;;;;;;5069777;28;20595;-61
2020/12/25 01:06:15;;;;;;;1.23;0.80;;;4.20;99.90;;;;;;5069508;28;20207;-61
2020/12/25 01:08:41;;;;;;;1.00;0.60;;;4.30;99.90;;;;;;5068952;28;20177;-61
2020/12/25 01:11:07;;;;;;;3.23;0.90;;;4.40;99.90;;;;;;5069042;28;20838;-60
2020/12/25 01:13:35;;;;;;;1.23;0.70;;;4.50;99.90;;;;;;5065510;28;20181;-61
2020/12/25 01:16:04;;;;;;;2.10;0.77;;;4.50;99.90;;;;;;5050130;28;20204;-61
2020/12/25 01:18:30;;;;;;;1.03;0.73;;;4.50;99.90;;;;;;5050441;28;20188;-60
2020/12/25 01:20:56;;;;;;;1.20;0.90;;;4.50;99.90;;;;;;5049593;28;20256;-60
2020/12/25 01:23:21;;;;;;;0.93;0.90;;;4.60;99.90;;;;;;5050250;28;20206;-60
2020/12/25 01:25:47;;;;;;;1.00;1.00;;;4.60;99.90;;;;;;5050161;28;20189;-61
2020/12/25 01:28:12;;;;;;;1.80;0.73;;;4.60;99.90;;;;;;5050254;28;20170;-59
2020/12/25 01:30:38;;;;;;;1.33;1.13;;;4.50;99.90;;;;;;5049552;28;20166;-60
2020/12/25 01:33:03;;;;;;;0.93;0.67;;;4.60;99.90;;;;;;5049941;28;20589;-61
2020/12/25 01:35:29;;;;;;;2.27;0.80;;;4.60;99.90;;;;;;5049543;28;20193;-61
2020/12/25 01:37:54;;;;;;;0.80;0.80;;;4.60;99.90;;;;;;5050022;28;20185;-60
2020/12/25 01:40:19;;;;;;;1.33;0.73;;;4.60;99.90;;;;;;5049794;28;20766;-61
2020/12/25 01:42:45;;;;;;;1.50;0.90;;;4.60;99.90;;;;;;5050113;28;20200;-61
2020/12/25 01:45:10;;;;;;;2.10;1.20;;;4.60;99.90;;;;;;5063078;28;20241;-61
2020/12/25 01:47:36;;;;;;;3.57;1.13;;;4.50;99.90;;;;;;5069294;28;20641;-60
2020/12/25 01:50:02;;;;;;;1.67;1.00;;;4.50;99.90;;;;;;5069046;28;20291;-60
2020/12/25 01:52:28;;;;;;;2.80;0.90;;;4.50;99.90;;;;;;5069146;28;20177;-60
2020/12/25 01:54:54;;;;;;;1.60;0.80;;;4.50;99.90;;;;;;5069689;28;20180;-60
2020/12/25 01:57:22;;;;;;;0.80;0.80;;;4.50;99.90;;;;;;5070306;28;20200;-61
2020/12/25 01:59:48;;;;;;;0.80;0.80;;;4.40;99.90;;;;;;5070346;28;20177;-60
2020/12/25 02:02:15;;;;;;;1.80;0.90;;;4.30;99.90;;;;;;5069699;28;20252;-61
2020/12/25 02:04:41;;;;;;;0.60;0.60;;;4.20;99.90;;;;;;5071085;28;20165;-61
2020/12/25 02:07:06;;;;;;;0.83;0.63;;;4.20;99.90;;;;;;5073521;28;20596;-61
2020/12/25 02:09:32;;;;;;;2.40;0.60;;;4.20;99.90;;;;;;5074070;28;20257;-61
2020/12/25 02:11:57;;;;;;;1.00;0.63;;;4.10;99.90;;;;;;5072907;28;20641;-61
2020/12/25 02:14:23;;;;;;;1.53;0.93;;;4.10;99.90;;;;;;5073598;28;20464;-60
2020/12/25 02:16:48;;;;;;;1.23;0.60;;;4.00;99.90;;;;;;5073699;28;20193;-61
2020/12/25 02:32:42;;;;;;;0.67;0.60;;;4.00;99.90;;;;;;5068486;28;20181;-61
2020/12/25 02:35:08;;;;;;;0.93;0.77;;;4.00;99.90;;;;;;5072892;28;20645;-61
2020/12/25 02:37:34;;;;;;;1.43;0.80;;;3.90;99.90;;;;;;5073215;28;20193;-61
2020/12/25 02:39:59;;;;;;;1.23;0.77;;;3.90;99.90;;;;;;5072940;28;20172;-60
2020/12/25 02:42:25;;;;;;;2.53;0.90;;;3.90;99.90;;;;;;5072210;28;20193;-61
2020/12/25 02:44:50;;;;;;;1.53;0.90;;;3.90;99.90;;;;;;5070732;28;20616;-59
2020/12/25 02:47:16;;;;;;;2.17;0.90;;;3.90;99.90;;;;;;5073377;28;20208;-60
2020/12/25 02:49:41;;;;;;;2.23;1.40;;;3.90;99.90;;;;;;5073072;28;20181;-59
2020/12/25 02:52:07;;;;;;;2.60;0.97;;;3.90;99.90;;;;;;5072020;28;20242;-60
2020/12/25 02:54:32;;;;;;;1.23;0.80;;;3.90;99.90;;;;;;5072870;28;20481;-59
2020/12/25 02:56:58;;;;;;;2.40;1.10;;;3.90;99.90;;;;;;5072758;28;20189;-60
2020/12/25 02:59:24;;;;;;;1.60;0.97;;;3.90;99.90;;;;;;5073117;28;20205;-61
2020/12/25 03:01:51;;;;;;;0.93;0.90;;;3.90;99.90;;;;;;5071798;28;20173;-61
2020/12/25 03:04:17;;;;;;;1.50;0.90;;;4.00;99.90;;;;;;5072753;28;20173;-60
2020/12/25 03:06:42;;;;;;;1.90;0.80;;;4.00;99.90;;;;;;5072721;28;20258;-60
2020/12/25 03:09:08;;;;;;;0.80;0.80;;;4.10;99.90;;;;;;5072644;28;20165;-60
2020/12/25 03:11:33;;;;;;;1.33;0.80;;;4.10;99.90;;;;;;5071782;28;20634;-60
2020/12/25 03:13:59;;;;;;;3.63;1.00;;;4.10;99.90;;;;;;5072391;28;20184;-60
2020/12/25 03:16:24;;;;;;;1.37;0.80;;;4.10;99.90;;;;;;5071833;28;20209;-62
2020/12/25 03:18:50;;;;;;;3.33;0.90;;;4.20;99.90;;;;;;5060949;28;20192;-59
2020/12/25 03:21:15;;;;;;;0.83;0.70;;;4.20;99.90;;;;;;5051376;28;20248;-61
2020/12/25 03:23:40;;;;;;;0.57;0.50;;;4.20;99.90;;;;;;5052673;28;20778;-60
2020/12/25 03:26:06;;;;;;;0.93;0.83;;;4.20;99.90;;;;;;5059160;28;20221;-60
2020/12/25 03:28:31;;;;;;;1.47;0.70;;;4.20;99.90;;;;;;5051889;28;20174;-62
2020/12/25 03:30:57;;;;;;;1.07;0.50;;;4.20;99.90;;;;;;5051629;28;20173;-62
2020/12/25 03:33:22;;;;;;;1.80;0.60;;;4.20;99.90;;;;;;5051781;28;20633;-60
2020/12/25 03:35:48;;;;;;;1.10;0.60;;;4.20;99.90;;;;;;5062569;22;21383;-62
2020/12/25 03:38:13;;;;;;;0.93;0.70;;;4.20;99.90;;;;;;5092709;28;20542;-62
2020/12/25 03:40:39;;;;;;;3.13;0.80;;;4.20;99.90;;;;;;5091865;28;20218;-62
2020/12/25 03:43:04;;;;;;;1.20;0.60;;;4.20;99.90;;;;;;5091852;28;20242;-62
2020/12/25 03:45:32;;;;;;;0.90;0.60;;;4.20;99.90;;;;;;5092413;28;20604;-62
2020/12/25 03:48:00;;;;;;;2.13;0.67;;;4.20;99.90;;;;;;5092563;28;20172;-62
2020/12/25 03:50:28;;;;;;;0.50;0.50;;;4.20;99.90;;;;;;5091976;28;20215;-61
2020/12/25 03:52:54;;;;;;;1.27;0.50;;;4.20;99.90;;;;;;5092279;28;20180;-62
2020/12/25 03:55:20;;;;;;;1.37;0.70;;;4.20;99.90;;;;;;5091841;28;20632;-61
2020/12/25 03:57:45;;;;;;;1.20;0.63;;;4.20;99.90;;;;;;5091854;28;20192;-63
2020/12/25 04:00:11;;;;;;;2.30;0.70;;;4.20;99.90;;;;;;5091693;28;20647;-64
2020/12/25 04:02:36;;;;;;;0.73;0.60;;;4.20;99.90;;;;;;5091483;28;20188;-65
2020/12/25 04:05:02;;;;;;;0.83;0.70;;;4.20;99.90;;;;;;5091595;28;20503;-64
2020/12/25 04:07:28;;;;;;;0.73;0.60;;;4.10;99.90;;;;;;5091785;28;20278;-64
2020/12/25 04:09:53;;;;;;;1.07;0.70;;;4.00;99.90;;;;;;5086497;28;20176;-66
2020/12/25 04:12:18;;;;;;;2.03;0.70;;;3.90;99.90;;;;;;5091119;28;20192;-66
2020/12/25 04:14:44;;;;;;;0.70;0.70;;;3.90;99.90;;;;;;5091508;28;20213;-65
2020/12/25 04:17:09;;;;;;;0.83;0.60;;;3.90;99.90;;;;;;5091285;28;20191;-64
2020/12/25 04:19:35;;;;;;;1.03;0.60;;;3.80;99.90;;;;;;5084045;28;20726;-65
2020/12/25 04:22:00;;;;;;;0.77;0.60;;;3.80;99.90;;;;;;5070169;28;20177;-64
2020/12/25 04:24:26;;;;;;;1.70;0.70;;;3.70;99.90;;;;;;5071182;28;20271;-64
2020/12/25 04:26:52;;;;;;;2.00;1.13;;;3.70;99.90;;;;;;5070288;28;20653;-64
2020/12/25 04:29:17;;;;;;;1.73;0.70;;;3.60;99.90;;;;;;5071036;28;20204;-61
2020/12/25 04:31:43;;;;;;;0.60;0.60;;;3.60;99.90;;;;;;5070274;28;20188;-60
2020/12/25 04:34:08;;;;;;;0.67;0.67;;;3.60;99.90;;;;;;5071084;28;20260;-64
2020/12/25 04:36:34;;;;;;;1.23;0.60;;;3.50;99.90;;;;;;5070790;28;20209;-62
2020/12/25 04:39:00;;;;;;;1.10;0.60;;;3.50;99.90;;;;;;5070681;28;20526;-62
2020/12/25 04:41:25;;;;;;;1.53;0.77;;;3.50;99.90;;;;;;5070781;28;20231;-63
2020/12/25 04:43:52;;;;;;;1.67;0.80;;;3.40;99.90;;;;;;5071005;28;20333;-63
2020/12/25 04:46:18;;;;;;;1.07;0.77;;;3.40;99.90;;;;;;5071022;28;20520;-63
2020/12/25 04:48:43;;;;;;;0.80;0.80;;;3.40;99.90;;;;;;5070662;28;20176;-63
2020/12/25 04:51:10;;;;;;;0.60;0.60;;;3.40;99.90;;;;;;5070094;28;20169;-63
2020/12/25 04:53:36;;;;;;;0.87;0.60;;;3.40;99.90;;;;;;5070438;28;20188;-63
2020/12/25 04:56:01;;;;;;;0.60;0.60;;;3.30;99.90;;;;;;5070638;28;20189;-62
2020/12/25 04:58:27;;;;;;;1.77;0.80;;;3.30;99.90;;;;;;5070755;28;20241;-62
2020/12/25 05:01:07;;;;;;;2.30;0.60;;;3.30;99.90;;;;;;5070062;28;20197;-62
2020/12/25 05:03:37;;;;;;;1.97;0.80;;;3.30;99.90;;;;;;5070594;28;20246;-62
2020/12/25 05:06:23;;;;;;;1.70;0.80;;;3.30;99.90;;;;;;5070261;28;20732;-63
2020/12/25 05:08:50;;;;;;;0.87;0.60;;;3.30;99.90;;;;;;5070230;28;20192;-63
2020/12/25 05:11:18;;;;;;;0.77;0.73;;;3.30;99.90;;;;;;5069622;28;20162;-62
2020/12/25 05:13:44;;;;;;;0.73;0.70;;;3.30;99.90;;;;;;5077962;28;20203;-63
2020/12/25 05:16:11;;;;;;;2.23;0.60;;;3.30;99.90;;;;;;5083135;28;20196;-63
2020/12/25 05:18:40;;;;;;;0.77;0.60;;;3.30;99.90;;;;;;5090499;28;20173;-63
2020/12/25 05:21:09;;;;;;;3.47;0.90;;;3.20;99.90;;;;;;5088078;28;20621;-62
2020/12/25 05:23:37;;;;;;;1.50;0.67;;;3.20;99.90;;;;;;5090764;28;20196;-62
2020/12/25 05:26:04;;;;;;;1.80;0.80;;;3.30;99.90;;;;;;5090216;28;20217;-63
2020/12/25 05:28:32;;;;;;;1.33;0.70;;;3.30;99.90;;;;;;5090513;28;20176;-63
2020/12/25 05:30:59;;;;;;;1.33;0.70;;;3.30;99.90;;;;;;5089743;28;20156;-63
2020/12/25 05:33:26;;;;;;;1.70;0.90;;;3.30;99.90;;;;;;5091323;28;20204;-62
2020/12/25 05:35:55;;;;;;;0.60;0.60;;;3.30;99.90;;;;;;5090952;28;20208;-64
2020/12/25 05:38:21;;;;;;;1.77;0.80;;;3.30;99.90;;;;;;5091332;28;20172;-63
2020/12/25 05:40:47;;;;;;;2.03;0.80;;;3.20;99.90;;;;;;5094302;28;20176;-63
2020/12/25 05:43:17;;;;;;;0.50;0.50;;;3.20;99.90;;;;;;5094330;28;20674;-63
2020/12/25 05:45:44;;;;;;;1.27;0.60;;;3.20;99.90;;;;;;5095413;28;20504;-63
2020/12/25 05:48:11;;;;;;;0.80;0.70;;;3.20;99.90;;;;;;5101070;28;20187;-63
2020/12/25 05:50:37;;;;;;;0.53;0.53;;;3.20;99.90;;;;;;5099928;28;20245;-63
2020/12/25 05:53:04;;;;;;;0.50;0.50;;;3.20;99.90;;;;;;5099585;28;20201;-63
2020/12/25 05:55:30;;;;;;;1.17;0.60;;;3.10;99.90;;;;;;5099564;28;20172;-63
2020/12/25 05:57:55;;;;;;;0.50;0.50;;;3.10;99.90;;;;;;5094598;28;20183;-62
2020/12/25 06:00:23;;;;;;;1.27;0.60;;;3.10;99.90;;;;;;5094159;28;20184;-64
2020/12/25 06:02:50;;;;;;;0.50;0.50;;;3.10;99.90;;;;;;5094885;28;20192;-63
2020/12/25 06:05:17;;;;;;;1.60;0.60;;;3.10;99.90;;;;;;5094699;28;20187;-63
2020/12/25 06:07:55;;;;;;;0.70;0.60;;;3.10;99.90;;;;;;5094818;28;20275;-63
2020/12/25 06:10:26;;;;;;;0.80;0.80;;;3.10;99.90;;;;;;5093826;28;20207;-63
2020/12/25 06:12:52;;;;;;;0.80;0.60;;;3.00;99.90;;;;;;5094502;28;20594;-62
2020/12/25 06:15:28;;;;;;;1.13;0.50;;;3.00;99.90;;;;;;5093999;28;20176;-63
2020/12/25 06:18:13;;;;;;;1.77;0.70;;;3.00;99.90;;;;;;5094335;28;20259;-62
2020/12/25 06:20:46;;;;;;;0.50;0.50;;;3.00;99.90;;;;;;5095632;28;20169;-63
2020/12/25 06:23:12;;;;;;;0.70;0.70;;;3.00;99.90;;;;;;5094270;28;20195;-63
2020/12/25 06:25:40;;;;;;;0.50;0.50;;;3.00;99.90;;;;;;5093550;28;20165;-63
2020/12/25 06:28:07;;;;;;;2.50;0.90;;;3.00;99.90;;;;;;5094019;28;20271;-63
2020/12/25 06:30:34;;;;;;;0.70;0.70;;;3.00;99.90;;;;;;5092787;28;20207;-64
2020/12/25 06:33:00;;;;;;;0.80;0.57;;;3.10;99.90;;;;;;5093708;28;20204;-63
2020/12/25 06:35:31;;;;;;;1.37;0.53;;;3.10;99.90;;;;;;5093611;28;20188;-63
2020/12/25 06:37:57;;;;;;;0.60;0.60;;;3.10;99.90;;;;;;5093988;28;20194;-63
2020/12/25 06:40:24;;;;;;;0.60;0.60;;;3.10;99.90;;;;;;5092966;28;20176;-63
2020/12/25 06:42:53;;;;;;;1.27;0.60;;;3.20;99.90;;;;;;5093046;28;20299;-62
2020/12/25 06:45:22;;;;;;;0.80;0.67;;;3.20;99.90;;;;;;5093418;28;20632;-63
2020/12/25 06:47:47;;;;;;;1.30;0.80;;;3.20;99.90;;;;;;5093058;28;20192;-63
2020/12/25 06:50:15;;;;;;;1.23;1.13;;;3.20;99.90;;;;;;5092323;28;20200;-64
2020/12/25 06:52:52;;;;;;;2.37;0.97;;;3.30;99.90;;;;;;5092326;28;20208;-64
2020/12/25 06:55:20;;;;;;;0.93;0.70;;;3.30;99.90;;;;;;5093133;28;20273;-63
2020/12/25 06:57:45;;;;;;;0.63;0.63;;;3.40;99.90;;;;;;5092839;28;20196;-64
2020/12/25 07:00:11;;;;;;;0.60;0.60;;;3.50;99.90;;;;;;5093244;28;20218;-64
2020/12/25 07:02:40;;;;;;;0.60;0.60;;;3.50;99.90;;;;;;5091885;28;20266;-64
2020/12/25 07:05:07;;;;;;;0.97;0.73;;;3.60;99.90;;;;;;5093193;28;20564;-64
2020/12/25 07:07:33;;;;;;;1.37;0.70;;;3.60;99.90;;;;;;5092886;28;20247;-65
2020/12/25 07:10:09;;;;;;;1.00;0.70;;;3.50;99.90;;;;;;5092842;28;20172;-64
2020/12/25 07:12:35;;;;;;;0.97;0.87;;;3.50;99.90;;;;;;5091879;28;20183;-64
2020/12/25 07:15:01;;;;;;;1.40;0.80;;;3.60;99.90;;;;;;5085210;28;20177;-64
2020/12/25 07:17:27;;;;;;;1.70;0.80;;;3.60;99.90;;;;;;5072758;28;20197;-64
2020/12/25 07:19:52;;;;;;;2.20;1.00;;;3.70;99.90;;;;;;5072295;28;20169;-63
2020/12/25 07:22:19;;;;;;;1.30;0.90;;;3.70;99.90;;;;;;5071738;28;20257;-61
2020/12/25 07:24:45;;;;;;;0.90;0.70;;;3.80;99.90;;;;;;5072323;28;20271;-67
2020/12/25 07:27:11;;;;;;;1.57;0.80;;;3.90;99.90;;;;;;5072490;28;20335;-67
2020/12/25 07:29:38;;;;;;;2.43;0.77;;;3.90;99.90;;;;;;5072366;28;20173;-67
2020/12/25 07:32:04;;;;;;;0.67;0.63;;;3.80;99.90;;;;;;5072012;28;20679;-66
2020/12/25 07:34:30;;;;;;;2.40;0.70;;;3.90;99.90;;;;;;5072790;28;20520;-67
2020/12/25 07:36:57;;;;;;;2.80;0.70;;;3.90;99.90;;;;;;5072237;28;20688;-67
2020/12/25 07:39:24;;;;;;;0.70;0.70;;;4.00;99.90;;;;;;5072920;28;20203;-67
2020/12/25 07:41:50;;;;;;;1.13;0.80;;;4.00;99.90;;;;;;5071506;28;20243;-67
2020/12/25 07:44:17;;;;;;;1.57;0.87;;;4.00;99.90;;;;;;5078969;28;20653;-67
2020/12/25 07:46:42;;;;;;;0.60;0.60;;;3.90;99.90;;;;;;5094999;28;20737;-67
2020/12/25 07:49:08;;;;;;;0.90;0.90;;;3.80;99.90;;;;;;5090479;28;20180;-67
2020/12/25 07:51:35;;;;;;;1.53;0.90;;;3.80;99.90;;;;;;5094077;28;20234;-67
2020/12/25 07:54:01;;;;;;;1.00;0.70;;;3.90;99.90;;;;;;5095573;28;20675;-67
2020/12/25 07:56:29;;;;;;;0.80;0.70;;;3.90;99.90;;;;;;5075843;28;20218;-67
2020/12/25 07:58:55;;;;;;;1.23;0.93;;;3.90;99.90;;;;;;5092465;28;20184;-67
2020/12/25 08:01:23;;;;;;;0.93;0.80;;;4.00;99.90;;;;;;5091111;28;20199;-67
2020/12/25 08:03:49;;;;;;;2.10;1.00;;;4.00;99.90;;;;;;5091578;28;20250;-67
2020/12/25 08:06:17;;;;;;;1.57;0.93;;;4.00;99.90;;;;;;5091792;28;20598;-67
2020/12/25 08:08:50;;;;;;;1.77;0.90;;;4.10;99.90;;;;;;5091097;28;20177;-67
2020/12/25 08:11:18;;;;;;;1.43;1.00;;;4.10;99.90;;;;;;5090660;28;20184;-67
2020/12/25 08:13:49;;;;;;;2.50;0.80;;;4.10;99.90;;;;;;5095504;28;20656;-66
2020/12/25 08:16:15;;;;;;;0.80;0.80;;;4.00;99.90;;;;;;5112439;28;20271;-67
2020/12/25 08:18:41;;;;;;;2.50;0.90;;;4.00;99.90;;;;;;5100489;28;20262;-66
2020/12/25 08:21:06;;;;;;;1.67;0.90;;;4.10;99.90;;;;;;5090520;28;20754;-67
2020/12/25 08:23:35;;;;;;;1.73;0.80;;;4.10;99.90;;;;;;5091037;28;20192;-67
2020/12/25 08:26:02;;;;;;;0.63;0.60;;;4.10;99.90;;;;;;5094008;28;20692;-67
2020/12/25 08:28:30;;;;;;;1.80;1.00;;;4.10;99.90;;;;;;5092110;28;20179;-68
2020/12/25 08:30:57;;;;;;;1.77;0.93;;;4.20;99.90;;;;;;5090704;28;20208;-67
2020/12/25 08:33:24;;;;;;;1.10;1.00;;;4.30;99.90;;;;;;5091486;28;20172;-67
2020/12/25 08:35:50;;;;;;;1.93;1.10;;;4.40;99.90;;;;;;5090977;28;20676;-67
2020/12/25 08:38:17;;;;;;;2.57;1.07;;;4.40;99.90;;;;;;5091509;28;20179;-67
2020/12/25 08:40:44;;;;;;;1.30;0.97;;;4.50;99.90;;;;;;5090409;28;20176;-67
2020/12/25 08:43:12;;;;;;;3.63;1.17;;;4.50;99.90;;;;;;5091178;28;20207;-67
2020/12/25 08:45:39;;;;;;;2.20;1.00;;;4.50;99.90;;;;;;5090542;28;20255;-67
2020/12/25 08:48:12;;;;;;;1.57;1.27;;;4.50;99.90;;;;;;5091635;28;20648;-68
2020/12/25 08:50:41;;;;;;;0.83;0.70;;;4.50;99.90;;;;;;5090195;28;20164;-67
2020/12/25 08:53:25;;;;;;;2.17;0.70;;;4.50;99.90;;;;;;5091377;28;20176;-67
2020/12/25 08:55:54;;;;;;;4.10;1.20;;;4.50;99.90;;;;;;5091103;28;20192;-66
2020/12/25 08:58:22;;;;;;;2.33;1.00;;;4.60;99.90;;;;;;5098710;28;20227;-67
2020/12/25 09:01:09;;;;;;;0.70;0.70;;;4.60;99.90;;;;;;5094514;28;20252;-68
2020/12/25 09:03:42;;;;;;;1.20;0.70;;;4.60;99.90;;;;;;5092473;28;20253;-66
2020/12/25 09:06:09;;;;;;;1.83;0.70;;;4.60;99.90;;;;;;5085788;28;20257;-67
2020/12/25 09:08:35;;;;;;;2.87;0.83;;;4.60;99.90;;;;;;5089229;28;20263;-68
2020/12/25 09:11:01;;;;;;;1.33;0.80;;;4.60;99.90;;;;;;5088648;28;20183;-66
2020/12/25 09:13:26;;;;;;;0.90;0.77;;;4.60;99.90;;;;;;5070284;28;20659;-68
2020/12/25 09:15:52;;;;;;;1.50;1.33;;;4.60;99.90;;;;;;5082307;28;20583;-68
2020/12/25 09:18:17;;;;;;;0.70;0.70;;;4.60;99.90;;;;;;5072220;28;20677;-68
2020/12/25 09:20:43;;;;;;;0.80;0.80;;;4.60;99.90;;;;;;5074387;28;20283;-68
2020/12/25 09:23:09;;;;;;;1.10;1.00;;;4.70;99.90;;;;;;5070350;28;20201;-67
2020/12/25 09:25:35;;;;;;;1.80;0.97;;;4.70;99.90;;;;;;5092122;28;20196;-67
2020/12/25 09:28:00;;;;;;;0.60;0.60;;;4.70;99.90;;;;;;5089615;28;20523;-67
2020/12/25 09:30:25;;;;;;;2.70;0.90;;;4.70;99.90;;;;;;5093751;28;20184;-66
2020/12/25 09:32:51;;;;;;;1.43;0.73;;;4.60;99.90;;;;;;5091575;28;20179;-68
2020/12/25 09:35:16;;;;;;;0.90;0.90;;;4.70;99.90;;;;;;5088896;28;20172;-68
2020/12/25 09:37:42;;;;;;;1.60;0.97;;;4.70;99.90;;;;;;5095549;22;20715;-64
2020/12/25 09:40:07;;;;;;;2.03;0.83;;;4.70;99.90;;;;;;5065035;28;20239;-65
2020/12/25 09:42:33;;;;;;;2.83;0.80;;;4.80;99.90;;;;;;5066970;28;20216;-64
2020/12/25 09:44:58;;;;;;;2.40;0.73;;;4.80;99.90;;;;;;5070847;28;20287;-64
2020/12/25 09:47:24;;;;;;;1.90;0.87;;;4.80;99.90;;;;;;5070271;28;20197;-64
2020/12/25 09:49:49;;;;;;;0.80;0.80;;;4.80;99.90;;;;;;5089920;28;20184;-64
2020/12/25 09:52:15;;;;;;;0.87;0.83;;;4.90;99.90;;;;;;5083844;28;20677;-63
2020/12/25 09:54:41;;;;;;;1.73;0.90;;;4.80;99.90;;;;;;5075428;28;20522;-63
2020/12/25 09:57:06;;;;;;;1.77;0.70;;;4.90;99.90;;;;;;5069585;28;20231;-64
2020/12/25 09:59:32;;;;;;;0.80;0.60;;;4.80;99.90;;;;;;5086207;28;20573;-63
2020/12/25 10:01:57;;;;;;;2.47;0.73;;;4.70;99.90;;;;;;5056092;28;20205;-66
2020/12/25 10:04:23;;;;;;;1.10;0.80;;;4.70;99.90;;;;;;5069211;28;20288;-63
2020/12/25 10:06:48;;;;;;;2.67;0.70;;;4.70;99.90;;;;;;5074436;28;20220;-64
2020/12/25 10:09:13;;;;;;;1.63;0.80;;;4.70;99.90;;;;;;5083025;28;20197;-64
2020/12/25 10:11:39;;;;;;;1.13;1.00;;;4.70;99.90;;;;;;5081031;28;20177;-63
2020/12/25 10:14:05;;;;;;;2.67;1.13;;;4.80;99.90;;;;;;5082487;28;20610;-64
2020/12/25 10:16:30;;;;;;;1.03;0.90;;;4.80;99.90;;;;;;5088658;28;20577;-64
2020/12/25 10:18:56;;;;;;;1.70;0.90;;;4.80;99.90;;;;;;5090585;28;20172;-64
2020/12/25 10:21:21;;;;;;;3.43;1.10;;;4.80;99.90;;;;;;5083515;28;20196;-63
2020/12/25 10:23:47;;;;;;;1.03;0.70;;;4.80;99.90;;;;;;5082579;28;20622;-64
2020/12/25 10:26:12;;;;;;;1.97;0.87;;;4.90;99.90;;;;;;5087269;28;20632;-64
2020/12/25 10:28:38;;;;;;;1.90;0.70;;;4.90;99.90;;;;;;5093146;28;20382;-63
2020/12/25 10:31:04;;;;;;;0.87;0.80;;;4.80;99.90;;;;;;5073357;28;20209;-63
2020/12/25 10:33:30;;;;;;;2.90;0.90;;;4.80;99.90;;;;;;5074017;28;20530;-65
2020/12/25 10:35:56;;;;;;;2.33;0.90;;;4.80;99.90;;;;;;5090387;28;20183;-68
